METAR Data
IDs: Format: Raw Decoded Include TAF

Data at: 0117 UTC 15 Aug 2020

VTBD 150100Z 12006KT 9999 FEW020 25/24 Q1009 NOSIG
VTBD 150030Z 12006KT 9999 FEW020 24/24 Q1009 NOSIG
VTBD 150000Z 13005KT 9999 FEW020 24/24 Q1009 NOSIG
VTBD 142330Z 10004KT 9999 FEW020 24/24 Q1009 NOSIG
VTBD 142300Z 10005KT 9999 FEW020 SCT030 24/24 Q1008 NOSIG
VTBD 142230Z 10004KT 9999 FEW020 SCT030 24/24 Q1008 NOSIG
VTBD 142200Z 12005KT 9999 FEW020 SCT030 24/24 Q1008 NOSIG
VTBD 142130Z 12005KT 9999 FEW020 SCT030 24/24 Q1008 NOSIG
VTBD 142100Z 11004KT 9999 FEW020 SCT030 24/24 Q1008 NOSIG
VTBD 142030Z 11004KT 080V140 9999 FEW020 SCT030 24/24 Q1008 NOSIG
VTBD 142000Z 15005KT 9999 FEW005 SCT030 25/24 Q1008 NOSIG
VTBD 141930Z 13004KT 9999 FEW005 25/24 Q1008 NOSIG
VTBD 141900Z 14005KT 9999 FEW020 25/25 Q1008 NOSIG
VTBD 141830Z 12004KT 9999 FEW020 25/25 Q1009 NOSIG
VTBD 141800Z 14005KT 9999 FEW020 25/25 Q1009 NOSIG
VTBD 141730Z 15005KT 9999 FEW020 25/24 Q1010 NOSIG
VTBD 141700Z 15006KT 9000 -RA FEW020 SCT040 25/24 Q1010 NOSIG
VTBD 141630Z 13004KT 9000 -RA FEW020 SCT040 25/24 Q1010 NOSIG
VTBD 141600Z 15005KT 9000 -RA FEW020 SCT040 25/24 Q1010 NOSIG
VTBD 141530Z 15003KT 9000 -RA FEW020 SCT040 25/24 Q1010 NOSIG
VTBD 141500Z 15004KT 9000 -RA FEW020 SCT040 25/24 Q1010 NOSIG
VTBD 141430Z 17003KT 9000 -RA FEW020 SCT030 25/24 Q1010 NOSIG
VTBD 141400Z 17004KT 9000 -RA FEW020 SCT030 25/24 Q1010 NOSIG
VTBD 141330Z 18005KT 9000 -RA FEW020 SCT030 25/24 Q1009 NOSIG
VTBD 141300Z 17005KT 8000 -RA FEW020 SCT030 24/24 Q1008 NOSIG
VTBD 141230Z 17005KT 8000 -RA FEW020 SCT030 24/24 Q1008 NOSIG
VTBD 141200Z 17005KT 150V210 8000 -RA FEW020 SCT030 24/24 Q1008 NOSIG
VTBD 141130Z 17005KT 9000 -RA FEW020 SCT030 24/24 Q1007 NOSIG
VTBD 141100Z 17005KT 9999 -RA FEW020 SCT030 24/23 Q1008 NOSIG
VTBD 141030Z 19004KT 160V220 9999 -RA FEW020 SCT030 24/23 Q1008 NOSIG
VTBD 141000Z 21007KT 9999 -RA FEW020 SCT030 24/23 Q1007 NOSIG
VTBD 140930Z 21010KT 8000 -RA FEW020 SCT030 24/23 Q1007 RETSRA NOSIG
VTBD 140900Z 24012KT 5000 TSRA FEW018CB SCT035 24/23 Q1007 BECMG TL0915 NSW
VTBD 140830Z 27013G23KT 3000 TSRA FEW018CB SCT035 24/24 Q1007 BECMG TL0900 5000 TSRA
VTBD 140800Z 30017G30KT 2000 TSRA FEW013CB SCT032 24/23 Q1007 TEMPO TL0815 0800 +TSRA
VTBD 140730Z 21006KT 180V240 9999 VCSH FEW020CB SCT035 32/25 Q1007 TEMPO FM0745 TL0900 29015G25KT 4000 TSRA
VTBD 140700Z 16007KT 110V210 9999 SCT035 31/24 Q1007 NOSIG
VTBD 140630Z 19007KT 150V220 9999 FEW030 BKN100 31/25 Q1008 NOSIG
VTBD 140600Z 20006KT 160V230 9999 SCT030 BKN100 31/24 Q1009 NOSIG
VTBD 140530Z 19006KT 160V220 9999 SCT030 BKN100 31/24 Q1009 NOSIG
VTBD 140500Z 20007KT 9999 SCT030 BKN100 32/23 Q1009 NOSIG
VTBD 140430Z 19008KT 9999 SCT030 BKN100 31/23 Q1009 NOSIG
VTBD 140400Z 21009KT 150V230 9999 FEW020 SCT030 31/24 Q1009 NOSIG
VTBD 140330Z 18004KT 140V220 9999 SCT020 30/25 Q1009 NOSIG
VTBD 140300Z 14003KT 100V210 8000 SCT015 29/26 Q1009 NOSIG
VTBD 140230Z 14005KT 100V170 6000 FEW020 28/26 Q1009 NOSIG
VTBD 140200Z 12004KT 090V150 4000 BR FEW010 SCT020 28/26 Q1009 NOSIG
VTBD 140130Z 14003KT 100V180 4000 BR FEW008 BKN100 27/26 Q1009 NOSIG
VTBD 140100Z VRB02KT 7000 FEW020 BKN100 26/26 Q1008 NOSIG
VTBD 140030Z 00000KT 7000 FEW020 BKN100 26/25 Q1008 NOSIG
VTBD 140000Z 00000KT 7000 FEW020 BKN100 25/25 Q1008 NOSIG
VTBD 132330Z 00000KT 7000 FEW005 BKN100 25/25 Q1007 NOSIG
VTBD 132300Z 00000KT 8000 FEW005 BKN100 25/25 Q1007 NOSIG
VTBD 132230Z 10003KT 070V130 9000 FEW005 SCT035 BKN100 25/25 Q1007 NOSIG
VTBD 132200Z 11003KT 9000 FEW020 SCT035 25/25 Q1007 NOSIG
VTBD 132130Z 11004KT 9000 FEW020 SCT035 BKN100 25/25 Q1007 NOSIG
VTBD 132100Z 11004KT 9000 -RA FEW020 SCT035 BKN100 25/25 Q1007 NOSIG
VTBD 132030Z 12004KT 9999 -RA FEW020 BKN100 25/25 Q1007 NOSIG
VTBD 132000Z 11003KT 070V130 9999 -RA FEW020 BKN100 26/25 Q1007 NOSIG
VTBD 131930Z 13003KT 9999 -RA FEW020 BKN100 26/25 Q1007 NOSIG
VTBD 131900Z 15004KT 9000 -RA FEW020 SCT035 BKN100 26/24 Q1008 NOSIG
VTBD 131830Z 17005KT 9000 -RA FEW020 SCT035 BKN100 26/25 Q1008 NOSIG
VTBD 131800Z 16006KT 140V200 9000 -RA FEW020 SCT035 BKN100 26/26 Q1009 NOSIG
VTBD 131730Z 14004KT 9000 -RA FEW020 SCT035 BKN100 26/26 Q1009 NOSIG
VTBD 131700Z 13001KT 9000 -RA FEW020 SCT035 BKN100 26/26 Q1009 NOSIG
VTBD 131630Z 00000KT 9000 -RA FEW020 SCT035 BKN100 26/26 Q1009 NOSIG
VTBD 131600Z 00000KT 9000 -RA FEW018 SCT035 BKN100 26/26 Q1009 NOSIG
VTBD 131530Z 13002KT 9000 -RA FEW018 SCT035 BKN100 26/25 Q1009 NOSIG
VTBD 131500Z 15002KT 9000 -RA FEW018 SCT030 BKN100 26/25 Q1009 NOSIG
VTBD 131430Z 16004KT 9000 -RA FEW020 SCT030 BKN100 26/25 Q1008 NOSIG
VTBD 131400Z 16004KT 9000 -RA FEW020 SCT030 BKN100 26/25 Q1008 NOSIG
VTBD 131330Z 15003KT 130V190 9000 -RA FEW020 SCT030 BKN100 25/25 Q1007 NOSIG